createdAt,value
2023-01-13T00:00:24.388Z,67.97
2023-01-13T00:03:26.817Z,73.07
2023-01-13T00:06:29.494Z,64.60
2023-01-13T00:09:37.153Z,66.03
2023-01-13T00:12:41.068Z,75.17
2023-01-13T00:15:43.642Z,71.93
2023-01-13T00:18:47.409Z,77.18
2023-01-13T00:21:49.812Z,69.53
2023-01-13T00:24:52.216Z,73.53
2023-01-13T00:27:54.581Z,72.22
2023-01-13T00:31:04.059Z,85.18
2023-01-13T00:34:06.503Z,66.05
2023-01-13T00:37:12.912Z,66.30
2023-01-13T00:40:15.336Z,61.03
2023-01-13T00:43:23.326Z,63.47
2023-01-13T00:46:25.922Z,65.30
2023-01-13T00:49:28.625Z,59.03
2023-01-13T00:52:32.977Z,62.65
2023-01-13T00:55:35.403Z,61.13
2023-01-13T00:58:38.038Z,60.92
2023-01-13T01:01:41.577Z,57.50
2023-01-13T01:04:44.209Z,63.00
2023-01-13T01:07:46.654Z,61.60
2023-01-13T01:10:49.454Z,61.85
2023-01-13T01:13:53.955Z,62.70
2023-01-13T01:16:56.335Z,60.63
2023-01-13T01:19:58.765Z,57.55
2023-01-13T01:23:01.264Z,59.53
2023-01-13T01:26:09.109Z,57.60
2023-01-13T01:29:13.981Z,54.43
2023-01-13T01:32:16.387Z,62.55
2023-01-13T01:35:18.732Z,63.75
2023-01-13T01:38:23.356Z,58.50
2023-01-13T01:41:28.778Z,58.10
2023-01-13T01:44:43.259Z,53.38
2023-01-13T01:47:49.588Z,55.17
2023-01-13T01:50:53.163Z,56.43
2023-01-13T01:53:56.979Z,61.17
2023-01-13T01:56:59.632Z,64.00
2023-01-13T02:00:05.012Z,60.25
2023-01-13T02:03:16.440Z,59.25
2023-01-13T02:06:19.357Z,48.90
2023-01-13T02:09:21.765Z,51.73
2023-01-13T02:12:29.559Z,50.80
2023-01-13T02:15:52.932Z,50.95
2023-01-13T02:19:16.530Z,45.15
2023-01-13T02:23:29.716Z,45.70
2023-01-13T02:26:49.834Z,42.03
2023-01-13T02:30:29.822Z,42.63
2023-01-13T02:34:01.680Z,47.08
2023-01-13T02:37:11.927Z,39.97
2023-01-13T02:40:26.747Z,46.37
2023-01-13T02:43:55.177Z,40.67
2023-01-13T02:47:20.446Z,36.78
2023-01-13T02:50:30.734Z,46.47
2023-01-13T02:53:41.546Z,39.50
2023-01-13T02:56:47.773Z,44.97
2023-01-13T02:59:53.119Z,41.00
2023-01-13T03:02:55.742Z,45.47
2023-01-13T03:06:29.864Z,43.47
2023-01-13T03:09:55.420Z,42.30
2023-01-13T03:13:20.802Z,37.37
2023-01-13T03:16:31.808Z,36.00
2023-01-13T03:20:06.949Z,43.35
2023-01-13T03:23:30.266Z,39.05
2023-01-13T03:26:51.194Z,37.90
2023-01-13T03:30:27.064Z,38.20
2023-01-13T03:33:41.657Z,35.22
2023-01-13T03:36:49.313Z,38.50
2023-01-13T03:39:57.850Z,42.15
2023-01-13T03:43:24.620Z,42.20
2023-01-13T03:46:35.043Z,40.17
2023-01-13T03:49:54.042Z,39.55
2023-01-13T03:53:02.839Z,37.88
2023-01-13T03:56:12.912Z,47.55
2023-01-13T03:59:24.186Z,41.23
2023-01-13T04:02:48.684Z,39.57
2023-01-13T04:05:58.280Z,39.35
2023-01-13T04:09:13.263Z,40.28
2023-01-13T04:12:51.810Z,30.45
2023-01-13T04:15:54.873Z,36.37
2023-01-13T04:18:57.422Z,33.95
2023-01-13T04:21:59.959Z,33.75
2023-01-13T04:25:02.432Z,34.47
2023-01-13T04:28:05.084Z,34.17
2023-01-13T04:31:07.738Z,35.47
2023-01-13T04:34:10.806Z,36.38
2023-01-13T04:37:13.301Z,33.60
2023-01-13T04:40:16.698Z,32.83
2023-01-13T04:43:19.136Z,33.90
2023-01-13T04:46:21.555Z,35.63
2023-01-13T04:49:24.208Z,31.23
2023-01-13T04:52:26.923Z,33.35
2023-01-13T04:55:29.675Z,39.58
2023-01-13T04:58:32.151Z,31.23
2023-01-13T05:01:34.768Z,32.03
2023-01-13T05:04:37.328Z,31.75
2023-01-13T05:07:39.901Z,31.55
2023-01-13T05:10:42.962Z,35.17
2023-01-13T05:14:03.678Z,31.73
2023-01-13T05:17:09.065Z,32.60
2023-01-13T05:20:12.736Z,32.95
2023-01-13T05:23:33.600Z,31.88
2023-01-13T05:26:36.129Z,32.30
2023-01-13T05:29:38.664Z,34.77
2023-01-13T05:32:41.340Z,38.08
2023-01-13T05:35:45.758Z,33.50
2023-01-13T05:38:48.228Z,38.70
2023-01-13T05:42:08.865Z,34.33
2023-01-13T05:45:12.303Z,35.55
2023-01-13T05:48:15.461Z,37.47
2023-01-13T05:51:19.776Z,38.38
2023-01-13T05:54:22.321Z,28.07
2023-01-13T05:57:24.799Z,31.93
2023-01-13T06:00:27.609Z,34.97
2023-01-13T06:03:30.131Z,35.15
2023-01-13T06:06:32.855Z,38.38
2023-01-13T06:09:36.394Z,37.53
2023-01-13T06:12:38.890Z,36.70
2023-01-13T06:15:41.329Z,39.38
2023-01-13T06:18:43.837Z,36.80
2023-01-13T06:21:46.480Z,38.20
2023-01-13T06:24:56.036Z,36.08
2023-01-13T06:27:59.972Z,38.83
2023-01-13T06:31:07.485Z,41.33
2023-01-13T06:34:14.121Z,41.13
2023-01-13T06:37:20.227Z,39.17
2023-01-13T06:40:24.147Z,43.40
2023-01-13T06:43:26.897Z,42.00
2023-01-13T06:46:29.528Z,41.38
2023-01-13T06:49:32.291Z,53.67
2023-01-13T06:52:34.879Z,47.83
2023-01-13T06:55:37.475Z,45.50
2023-01-13T06:58:40.405Z,42.92
2023-01-13T07:01:43.575Z,57.15
2023-01-13T07:04:46.978Z,91.80
2023-01-13T07:07:49.505Z,98.45
2023-01-13T07:10:53.152Z,74.35
2023-01-13T07:14:17.493Z,76.13
2023-01-13T07:17:25.381Z,64.27
2023-01-13T07:20:31.351Z,50.33
2023-01-13T07:23:36.953Z,50.00
2023-01-13T07:26:39.536Z,44.92
2023-01-13T07:29:42.057Z,38.75
2023-01-13T07:32:44.775Z,40.43
2023-01-13T07:35:55.365Z,41.40
2023-01-13T07:38:57.994Z,38.13
2023-01-13T07:42:19.259Z,47.40
2023-01-13T07:45:22.007Z,51.78
2023-01-13T07:48:25.220Z,52.87
2023-01-13T07:51:28.055Z,73.07
2023-01-13T07:54:40.024Z,61.15
2023-01-13T07:57:48.773Z,46.63
2023-01-13T08:00:53.283Z,31.52
2023-01-13T08:03:56.381Z,34.37
2023-01-13T08:06:58.904Z,27.60
2023-01-13T08:10:02.445Z,23.70
2023-01-13T08:13:21.174Z,28.45
2023-01-13T08:16:24.302Z,24.75
2023-01-13T08:19:26.922Z,23.77
2023-01-13T08:22:31.123Z,24.35
2023-01-13T08:25:33.636Z,21.05
2023-01-13T08:28:36.555Z,23.80
2023-01-13T08:31:39.276Z,23.33
2023-01-13T08:34:42.102Z,18.60
2023-01-13T08:37:46.045Z,18.38
2023-01-13T08:40:48.849Z,20.48
2023-01-13T08:43:53.774Z,17.58
2023-01-13T08:46:58.815Z,19.35
2023-01-13T08:50:01.472Z,16.67
2023-01-13T08:53:04.096Z,17.75
2023-01-13T08:56:11.023Z,19.08
2023-01-13T08:59:15.753Z,22.50
2023-01-13T09:02:21.083Z,19.10
2023-01-13T09:05:23.923Z,21.27
2023-01-13T09:08:26.524Z,15.52
2023-01-13T09:11:53.294Z,18.52
2023-01-13T09:14:59.264Z,19.02
2023-01-13T09:18:02.750Z,20.77
2023-01-13T09:21:05.618Z,20.33
2023-01-13T09:24:08.742Z,22.42
2023-01-13T09:27:12.801Z,22.77
2023-01-13T09:30:16.720Z,24.00
2023-01-13T09:33:37.499Z,23.08
2023-01-13T09:36:40.322Z,22.43
2023-01-13T09:39:43.229Z,20.80
2023-01-13T09:43:19.530Z,23.65
2023-01-13T09:46:47.521Z,18.58
2023-01-13T09:49:51.041Z,21.70
2023-01-13T09:52:53.790Z,24.63
2023-01-13T09:55:56.538Z,21.55
2023-01-13T09:58:59.085Z,22.92
2023-01-13T10:02:26.004Z,21.90
2023-01-13T10:05:52.974Z,25.15
2023-01-13T10:09:42.923Z,25.13
2023-01-13T10:13:11.661Z,25.85
2023-01-13T10:16:21.413Z,18.45
2023-01-13T10:20:10.504Z,19.75
2023-01-13T10:23:22.109Z,19.50
2023-01-13T10:26:46.207Z,21.47
2023-01-13T10:29:48.787Z,28.98
2023-01-13T10:32:57.563Z,20.95
2023-01-13T10:36:02.531Z,17.65
2023-01-13T10:39:16.205Z,20.70
2023-01-13T10:42:22.049Z,17.40
2023-01-13T10:45:26.030Z,19.63
2023-01-13T10:48:33.537Z,21.10
2023-01-13T10:51:38.839Z,22.40
2023-01-13T10:54:52.179Z,22.92
2023-01-13T10:57:54.907Z,25.37
2023-01-13T11:01:04.836Z,21.58
2023-01-13T11:04:27.740Z,19.92
2023-01-13T11:07:34.977Z,19.83
2023-01-13T11:10:47.108Z,17.77
2023-01-13T11:14:12.556Z,20.90
2023-01-13T11:17:22.533Z,20.88
2023-01-13T11:20:32.562Z,22.10
2023-01-13T11:23:47.483Z,24.85
2023-01-13T11:27:03.776Z,20.80
2023-01-13T11:30:09.998Z,23.17
2023-01-13T11:33:27.443Z,21.38
2023-01-13T11:37:00.012Z,23.33
2023-01-13T11:40:05.988Z,21.30
2023-01-13T11:43:32.543Z,23.77
2023-01-13T11:46:35.437Z,24.83
2023-01-13T11:49:38.788Z,26.08
2023-01-13T11:52:41.536Z,21.77
2023-01-13T11:56:05.126Z,25.33
2023-01-13T11:59:25.016Z,18.65
2023-01-13T12:02:27.551Z,22.07
2023-01-13T12:05:39.134Z,24.17
2023-01-13T12:08:47.829Z,25.00
2023-01-13T12:12:20.063Z,26.70
2023-01-13T12:15:22.638Z,23.45
2023-01-13T12:18:51.472Z,23.47
2023-01-13T12:22:02.390Z,24.27
2023-01-13T12:25:21.757Z,26.17
2023-01-13T12:28:32.546Z,25.98
2023-01-13T12:31:38.675Z,32.47
2023-01-13T12:35:09.190Z,24.97
2023-01-13T12:38:44.380Z,27.42
2023-01-13T12:42:20.252Z,26.17
2023-01-13T12:45:27.004Z,26.08
2023-01-13T12:48:53.090Z,26.25
2023-01-13T12:51:55.784Z,30.53
2023-01-13T12:54:58.524Z,28.88
2023-01-13T12:58:07.002Z,27.27
2023-01-13T13:01:15.001Z,28.33
2023-01-13T13:04:38.812Z,24.55
2023-01-13T13:07:46.102Z,29.13
2023-01-13T13:11:34.116Z,29.65
2023-01-13T13:14:39.471Z,29.45
2023-01-13T13:17:42.842Z,27.75
2023-01-13T13:21:03.970Z,31.15
2023-01-13T13:24:11.159Z,28.43
2023-01-13T13:27:28.869Z,30.58
2023-01-13T13:30:37.224Z,29.00
2023-01-13T13:33:49.230Z,32.65
2023-01-13T13:37:26.674Z,27.80
2023-01-13T13:40:52.339Z,32.13
2023-01-13T13:44:18.670Z,35.67
2023-01-13T13:47:21.659Z,34.05
2023-01-13T13:50:24.582Z,37.78
2023-01-13T13:53:30.066Z,29.58
2023-01-13T13:56:38.903Z,33.13
2023-01-13T13:59:41.366Z,31.60
2023-01-13T14:02:54.192Z,30.67
2023-01-13T14:06:07.184Z,29.60
2023-01-13T14:09:16.708Z,30.30
2023-01-13T14:12:24.777Z,29.97
2023-01-13T14:15:33.992Z,31.73
2023-01-13T14:18:47.799Z,34.58
2023-01-13T14:21:50.359Z,33.70
2023-01-13T14:24:57.544Z,31.63
2023-01-13T14:28:08.100Z,34.43
2023-01-13T14:31:12.827Z,33.40
2023-01-13T14:34:32.106Z,34.38
2023-01-13T14:37:39.081Z,29.73
2023-01-13T14:40:45.752Z,31.85
2023-01-13T14:43:50.579Z,33.03
2023-01-13T14:46:58.751Z,51.17
2023-01-13T14:50:06.475Z,38.25
2023-01-13T14:53:29.335Z,30.05
2023-01-13T14:56:49.936Z,31.38
2023-01-13T14:59:57.428Z,30.87
2023-01-13T15:03:07.274Z,34.00
2023-01-13T15:06:24.935Z,33.58
2023-01-13T15:09:33.923Z,27.90
2023-01-13T15:12:39.781Z,29.95
2023-01-13T15:15:42.308Z,32.13
2023-01-13T15:18:45.652Z,32.80
2023-01-13T15:21:48.373Z,33.97
2023-01-13T15:24:51.208Z,32.72
2023-01-13T15:27:53.821Z,37.05
2023-01-13T15:31:00.718Z,37.20
2023-01-13T15:34:03.254Z,34.35
2023-01-13T15:37:05.786Z,39.70
2023-01-13T15:40:18.832Z,38.60
2023-01-13T15:43:42.062Z,42.67
2023-01-13T15:46:45.289Z,37.83
2023-01-13T15:49:47.991Z,38.97
2023-01-13T15:52:50.487Z,37.72
2023-01-13T15:55:56.834Z,39.72
2023-01-13T15:58:59.441Z,47.30
2023-01-13T16:02:02.139Z,38.60
2023-01-13T16:05:05.858Z,39.50
2023-01-13T16:08:15.558Z,42.65
2023-01-13T16:11:18.029Z,37.58
2023-01-13T16:14:20.558Z,38.78
2023-01-13T16:17:25.284Z,45.17
2023-01-13T16:20:29.953Z,41.53
2023-01-13T16:23:32.556Z,39.60
2023-01-13T16:26:37.614Z,41.03
2023-01-13T16:29:40.273Z,36.65
2023-01-13T16:32:42.763Z,39.67
2023-01-13T16:36:11.683Z,38.58
2023-01-13T16:39:20.577Z,44.97
2023-01-13T16:42:23.169Z,43.42
2023-01-13T16:45:26.692Z,46.60
2023-01-13T16:48:29.285Z,46.00
2023-01-13T16:51:33.317Z,35.90
2023-01-13T16:54:35.764Z,37.38
2023-01-13T16:57:38.225Z,39.20
2023-01-13T17:00:41.483Z,36.90
2023-01-13T17:03:44.562Z,33.43
2023-01-13T17:07:00.546Z,36.50
2023-01-13T17:10:03.794Z,34.50
2023-01-13T17:13:15.624Z,40.67
2023-01-13T17:16:22.406Z,38.17
2023-01-13T17:19:26.117Z,38.17
2023-01-13T17:22:30.831Z,37.60
2023-01-13T17:25:33.320Z,32.50
2023-01-13T17:28:35.868Z,33.58
2023-01-13T17:31:39.098Z,34.75
2023-01-13T17:34:41.639Z,30.67
2023-01-13T17:37:44.247Z,36.88
2023-01-13T17:40:46.872Z,40.53
2023-01-13T17:43:50.508Z,41.67
2023-01-13T17:46:52.957Z,36.20
2023-01-13T17:49:55.768Z,47.87
2023-01-13T17:52:58.213Z,40.33
2023-01-13T17:56:00.675Z,45.28
2023-01-13T17:59:03.204Z,45.78
2023-01-13T18:02:06.040Z,44.90
2023-01-13T18:05:09.301Z,48.03
2023-01-13T18:08:11.802Z,52.67
2023-01-13T18:11:18.761Z,51.33
2023-01-13T18:14:23.101Z,50.88
2023-01-13T18:17:25.566Z,49.05
2023-01-13T18:20:49.157Z,45.13
2023-01-13T18:24:15.556Z,40.42
2023-01-13T18:27:26.547Z,45.58
2023-01-13T18:30:29.937Z,42.78
2023-01-13T18:33:32.464Z,47.38
2023-01-13T18:36:35.134Z,42.33
2023-01-13T18:39:37.914Z,50.67
2023-01-13T18:42:56.220Z,50.03
2023-01-13T18:45:58.865Z,49.63
2023-01-13T18:49:01.686Z,62.78
2023-01-13T18:52:04.628Z,42.17
2023-01-13T18:55:07.434Z,35.03
2023-01-13T18:58:10.489Z,41.67
2023-01-13T19:01:13.064Z,44.60
2023-01-13T19:04:16.993Z,37.63
2023-01-13T19:07:24.348Z,43.30
2023-01-13T19:10:31.879Z,42.00
2023-01-13T19:13:37.269Z,46.38
2023-01-13T19:16:40.096Z,42.03
2023-01-13T19:19:48.417Z,46.67
2023-01-13T19:22:54.334Z,48.90
2023-01-13T19:26:05.005Z,49.58
2023-01-13T19:29:08.676Z,46.67
2023-01-13T19:32:12.718Z,44.00
2023-01-13T19:35:18.037Z,41.03
2023-01-13T19:38:21.699Z,51.77
2023-01-13T19:41:47.064Z,48.38
2023-01-13T19:45:10.246Z,47.38
2023-01-13T19:48:16.054Z,51.85
2023-01-13T19:51:18.699Z,48.00
2023-01-13T19:54:21.513Z,44.73
2023-01-13T19:57:25.729Z,40.47
2023-01-13T20:00:29.256Z,40.50
2023-01-13T20:03:35.907Z,44.33
2023-01-13T20:06:38.599Z,48.28
2023-01-13T20:09:45.151Z,47.47
2023-01-13T20:12:48.227Z,41.88
2023-01-13T20:15:51.003Z,38.45
2023-01-13T20:18:54.118Z,36.78
2023-01-13T20:21:56.741Z,48.88
2023-01-13T20:24:59.260Z,43.47
2023-01-13T20:28:02.542Z,39.70
2023-01-13T20:31:09.767Z,39.33
2023-01-13T20:34:14.605Z,41.17
2023-01-13T20:37:17.134Z,45.65
2023-01-13T20:40:20.882Z,38.40
2023-01-13T20:43:23.554Z,37.45
2023-01-13T20:46:26.181Z,38.92
2023-01-13T20:49:30.305Z,46.55
2023-01-13T20:52:33.603Z,41.17
2023-01-13T20:55:38.982Z,37.63
2023-01-13T20:58:41.861Z,41.08
2023-01-13T21:01:44.687Z,49.75
2023-01-13T21:04:47.230Z,52.35
2023-01-13T21:07:49.979Z,40.75
2023-01-13T21:11:00.104Z,43.50
2023-01-13T21:14:21.534Z,51.47
2023-01-13T21:17:42.350Z,54.47
2023-01-13T21:20:45.182Z,51.90
2023-01-13T21:23:52.794Z,48.97
2023-01-13T21:27:00.360Z,40.30
2023-01-13T21:30:03.022Z,45.50
2023-01-13T21:33:06.835Z,45.33
2023-01-13T21:36:12.699Z,49.58
2023-01-13T21:39:16.086Z,53.88
2023-01-13T21:42:37.004Z,61.93
2023-01-13T21:45:58.195Z,51.10
2023-01-13T21:49:00.817Z,51.05
2023-01-13T21:52:03.517Z,46.80
2023-01-13T21:55:23.702Z,51.08
2023-01-13T21:58:26.223Z,50.97
2023-01-13T22:01:28.809Z,53.30
2023-01-13T22:04:33.297Z,54.38
2023-01-13T22:07:36.997Z,51.13
2023-01-13T22:10:58.413Z,49.80
2023-01-13T22:14:07.086Z,46.97
2023-01-13T22:17:09.530Z,44.53
2023-01-13T22:20:13.356Z,45.92
2023-01-13T22:23:17.203Z,48.97
2023-01-13T22:26:19.741Z,51.17
2023-01-13T22:29:22.229Z,45.87
2023-01-13T22:32:24.820Z,51.28
2023-01-13T22:35:27.617Z,50.95
2023-01-13T22:38:30.133Z,52.85
2023-01-13T22:41:32.732Z,54.60
2023-01-13T22:44:35.337Z,47.27
2023-01-13T22:47:38.048Z,49.22
2023-01-13T22:50:40.479Z,55.28
2023-01-13T22:53:43.498Z,54.40
2023-01-13T22:56:45.977Z,53.72
2023-01-13T22:59:48.754Z,52.03
2023-01-13T23:02:51.312Z,52.50
2023-01-13T23:05:57.436Z,56.92
2023-01-13T23:09:00.351Z,53.08
2023-01-13T23:12:03.187Z,47.53
2023-01-13T23:15:06.128Z,49.13
2023-01-13T23:18:08.596Z,49.00
2023-01-13T23:21:13.716Z,51.65
2023-01-13T23:24:16.245Z,51.97
2023-01-13T23:27:18.947Z,50.60
2023-01-13T23:30:22.416Z,49.63
2023-01-13T23:33:25.454Z,46.22
2023-01-13T23:36:28.963Z,51.70
2023-01-13T23:39:31.783Z,49.17
2023-01-13T23:42:34.360Z,49.50
2023-01-13T23:45:37.584Z,46.67
2023-01-13T23:48:40.385Z,43.60
2023-01-13T23:51:42.899Z,47.42
2023-01-13T23:54:45.620Z,51.30
2023-01-13T23:57:48.117Z,44.80
